createdAt,value
2018-02-21T00:00:54.605Z,0.00
2018-02-21T00:03:23.116Z,-0.10
2018-02-21T00:05:50.792Z,-0.10
2018-02-21T00:08:18.761Z,-0.10
2018-02-21T00:10:46.376Z,-0.10
2018-02-21T00:13:14.063Z,-0.10
2018-02-21T00:15:41.696Z,-0.20
2018-02-21T00:23:17.223Z,-0.10
2018-02-21T00:25:44.917Z,0.00
2018-02-21T00:28:12.534Z,0.10
2018-02-21T00:30:40.165Z,0.10
2018-02-21T00:33:08.515Z,0.10
2018-02-21T00:35:36.139Z,0.10
2018-02-21T00:38:03.775Z,0.00
2018-02-21T00:40:31.454Z,-0.10
2018-02-21T00:42:59.099Z,0.00
2018-02-21T00:45:26.701Z,0.00
2018-02-21T00:47:54.377Z,0.10
2018-02-21T00:50:22.008Z,0.00
2018-02-21T00:52:49.638Z,-0.20
2018-02-21T00:55:17.312Z,-0.40
2018-02-21T01:00:12.558Z,-0.50
2018-02-21T01:02:40.246Z,-0.60
2018-02-21T01:07:35.504Z,-0.60
2018-02-21T01:10:03.209Z,-0.60
2018-02-21T01:12:31.296Z,-0.50
2018-02-21T01:17:27.075Z,-0.60
2018-02-21T01:19:54.699Z,-0.60
2018-02-21T01:22:22.333Z,-0.50
2018-02-21T01:24:50.012Z,-0.40
2018-02-21T01:27:17.889Z,-0.30
2018-02-21T01:29:45.514Z,-0.30
2018-02-21T01:32:13.199Z,-0.40
2018-02-21T01:34:40.826Z,-0.40
2018-02-21T01:37:08.439Z,-0.50
2018-02-21T01:39:36.118Z,-0.50
2018-02-21T01:42:03.746Z,-0.60
2018-02-21T01:44:31.379Z,-0.50
2018-02-21T01:49:38.194Z,-0.70
2018-02-21T01:54:33.492Z,-0.70
2018-02-21T01:57:01.111Z,-0.70
2018-02-21T01:59:28.796Z,-0.80
2018-02-21T02:01:56.422Z,-0.80
2018-02-21T02:04:24.048Z,-0.90
2018-02-21T02:06:51.752Z,-0.80
2018-02-21T02:09:19.376Z,-0.80
2018-02-21T02:11:47.159Z,-0.90
2018-02-21T02:14:14.847Z,-0.80
2018-02-21T02:16:46.658Z,-0.70
2018-02-21T02:19:14.338Z,-0.50
2018-02-21T02:21:41.965Z,-0.60
2018-02-21T02:24:09.604Z,-0.40
2018-02-21T02:26:37.610Z,-0.50
2018-02-21T02:29:05.239Z,-0.40
2018-02-21T02:31:32.864Z,-0.40
2018-02-21T02:34:00.541Z,-0.40
2018-02-21T02:36:28.157Z,-0.30
2018-02-21T02:39:07.621Z,-0.30
2018-02-21T02:41:35.248Z,-0.30
2018-02-21T02:44:02.876Z,-0.30
2018-02-21T02:46:30.588Z,-0.40
2018-02-21T02:48:58.219Z,-0.60
2018-02-21T02:51:25.847Z,-0.60
2018-02-21T02:53:53.530Z,-0.50
2018-02-21T02:56:21.155Z,-0.50
2018-02-21T02:58:48.797Z,-0.40
2018-02-21T03:01:16.478Z,-0.30
2018-02-21T03:03:44.112Z,-0.30
2018-02-21T03:06:11.751Z,-0.40
2018-02-21T03:08:39.442Z,-0.40
2018-02-21T03:13:46.213Z,-0.50
2018-02-21T03:16:15.578Z,-0.30
2018-02-21T03:18:43.524Z,-0.20
2018-02-21T03:21:12.437Z,-0.20
2018-02-21T03:23:39.984Z,-0.20
2018-02-21T03:26:08.125Z,-0.40
2018-02-21T03:28:35.815Z,-0.60
2018-02-21T03:31:04.019Z,-0.50
2018-02-21T03:33:31.639Z,-0.60
2018-02-21T03:35:59.324Z,-0.60
2018-02-21T03:40:54.606Z,-0.70
2018-02-21T03:43:22.292Z,-0.70
2018-02-21T03:45:49.928Z,-0.70
2018-02-21T03:48:17.559Z,-0.60
2018-02-21T03:50:45.237Z,-0.50
2018-02-21T03:53:12.861Z,-0.50
2018-02-21T03:55:40.497Z,-0.40
2018-02-21T03:58:08.180Z,-0.30
2018-02-21T04:00:35.816Z,-0.30
2018-02-21T04:03:03.447Z,-0.20
2018-02-21T04:05:31.145Z,-0.30
2018-02-21T04:07:58.771Z,-0.30
2018-02-21T04:10:26.393Z,-0.30
2018-02-21T04:12:54.076Z,-0.30
2018-02-21T04:15:21.713Z,-0.20
2018-02-21T04:17:49.336Z,-0.10
2018-02-21T04:20:17.016Z,-0.10
2018-02-21T04:22:44.641Z,-0.10
2018-02-21T04:25:12.326Z,-0.10
2018-02-21T04:27:39.969Z,-0.20
2018-02-21T04:35:23.412Z,-0.30
2018-02-21T04:37:52.694Z,-0.30
2018-02-21T04:40:20.326Z,-0.20
2018-02-21T04:42:47.969Z,-0.20
2018-02-21T04:47:43.300Z,-0.20
2018-02-21T04:50:10.925Z,-0.20
2018-02-21T04:52:38.603Z,-0.20
2018-02-21T04:55:11.944Z,-0.20
2018-02-21T04:57:45.289Z,-0.20
2018-02-21T05:00:12.909Z,-0.20
2018-02-21T05:02:40.976Z,-0.20
2018-02-21T05:05:08.656Z,-0.30
2018-02-21T05:07:36.290Z,-0.20
2018-02-21T05:10:03.915Z,-0.20
2018-02-21T05:12:31.593Z,-0.20
2018-02-21T05:14:59.268Z,-0.20
2018-02-21T05:19:58.685Z,-0.20
2018-02-21T05:22:26.312Z,-0.20
2018-02-21T05:27:21.636Z,-0.40
2018-02-21T05:29:49.302Z,-0.30
2018-02-21T05:34:44.614Z,-0.30
2018-02-21T05:37:12.247Z,-0.30
2018-02-21T05:39:39.884Z,-0.40
2018-02-21T05:44:48.694Z,-0.30
2018-02-21T05:47:16.389Z,-0.30
2018-02-21T05:49:44.010Z,-0.30
2018-02-21T05:52:11.636Z,-0.20
2018-02-21T05:54:39.328Z,-0.20
2018-02-21T05:57:06.965Z,-0.20
2018-02-21T05:59:37.658Z,-0.20
2018-02-21T06:02:05.631Z,-0.10
2018-02-21T06:04:32.966Z,-0.20
2018-02-21T06:07:00.593Z,-0.20
2018-02-21T06:09:28.393Z,-0.20
2018-02-21T06:11:56.033Z,-0.10
2018-02-21T06:14:23.684Z,-0.10
2018-02-21T06:16:51.383Z,-0.20
2018-02-21T06:19:21.071Z,-0.20
2018-02-21T06:21:48.703Z,-0.10
2018-02-21T06:24:16.381Z,-0.10
2018-02-21T06:26:44.010Z,-0.10
2018-02-21T06:29:11.638Z,-0.20
2018-02-21T06:31:39.340Z,-0.10
2018-02-21T06:36:34.596Z,-0.10
2018-02-21T06:39:03.709Z,0.00
2018-02-21T06:41:31.335Z,-0.10
2018-02-21T06:44:01.142Z,-0.20
2018-02-21T06:46:28.835Z,-0.30
2018-02-21T06:48:56.840Z,-0.20
2018-02-21T06:51:24.337Z,-0.20
2018-02-21T06:56:31.233Z,-0.20
2018-02-21T06:58:58.048Z,-0.20
2018-02-21T07:01:25.670Z,-0.20
2018-02-21T07:03:53.302Z,-0.10
2018-02-21T07:06:20.974Z,-0.10
2018-02-21T07:08:48.603Z,-0.20
2018-02-21T07:11:16.697Z,-0.30
2018-02-21T07:13:44.395Z,-0.60
2018-02-21T07:16:12.037Z,-0.60
2018-02-21T07:18:39.656Z,-0.70
2018-02-21T07:21:07.386Z,-0.70
2018-02-21T07:23:35.008Z,-0.50
2018-02-21T07:26:02.642Z,-0.30
2018-02-21T07:28:30.329Z,-0.20
2018-02-21T07:30:58.016Z,-0.10
2018-02-21T07:33:25.586Z,0.00
2018-02-21T07:35:53.275Z,0.00
2018-02-21T07:38:21.400Z,-0.10
2018-02-21T07:40:49.032Z,-0.20
2018-02-21T07:43:16.745Z,-0.30
2018-02-21T07:48:11.994Z,-0.30
2018-02-21T07:50:39.686Z,-0.10
2018-02-21T07:53:07.305Z,-0.20
2018-02-21T07:55:34.934Z,-0.10
2018-02-21T07:58:04.521Z,-0.10
2018-02-21T08:00:30.239Z,0.10
2018-02-21T08:02:57.897Z,0.20
2018-02-21T08:05:25.575Z,0.30
2018-02-21T08:07:53.210Z,0.30
2018-02-21T08:10:24.260Z,0.50
2018-02-21T08:12:51.940Z,0.50
2018-02-21T08:17:47.195Z,0.40
2018-02-21T08:22:53.960Z,0.20
2018-02-21T08:25:21.650Z,0.40
2018-02-21T08:27:49.270Z,0.50
2018-02-21T08:30:16.896Z,0.50
2018-02-21T08:35:15.371Z,0.70
2018-02-21T08:37:43.006Z,0.80
2018-02-21T08:42:42.397Z,1.10
2018-02-21T08:45:10.474Z,1.10
2018-02-21T08:47:37.960Z,1.30
2018-02-21T08:50:05.586Z,1.20
2018-02-21T08:52:33.209Z,1.30
2018-02-21T08:55:00.880Z,1.50
2018-02-21T08:57:28.509Z,1.10
2018-02-21T08:59:56.135Z,0.90
2018-02-21T09:04:52.610Z,1.20
2018-02-21T09:07:20.261Z,1.50
2018-02-21T09:09:47.952Z,1.70
2018-02-21T09:12:15.578Z,1.90
2018-02-21T09:17:10.903Z,1.60
2018-02-21T09:19:38.533Z,1.60
2018-02-21T09:22:06.161Z,2.10
2018-02-21T09:24:33.833Z,1.80
2018-02-21T09:27:01.463Z,1.80
2018-02-21T09:29:29.087Z,1.50
2018-02-21T09:31:56.773Z,1.40
2018-02-21T09:34:24.398Z,1.60
2018-02-21T09:36:52.980Z,1.90
2018-02-21T09:39:20.664Z,2.10
2018-02-21T09:41:48.298Z,1.50
2018-02-21T09:44:15.918Z,1.10
2018-02-21T09:49:22.703Z,1.40
2018-02-21T09:51:50.394Z,1.40
2018-02-21T09:54:18.012Z,1.30
2018-02-21T09:56:45.641Z,1.80
2018-02-21T09:59:13.317Z,2.40
2018-02-21T10:01:40.960Z,2.20
2018-02-21T10:04:08.594Z,2.00
2018-02-21T10:06:36.272Z,1.90
2018-02-21T10:09:03.915Z,2.10
2018-02-21T10:11:31.530Z,2.10
2018-02-21T10:13:59.205Z,2.60
2018-02-21T10:16:28.491Z,2.30
2018-02-21T10:18:56.111Z,2.50
2018-02-21T10:21:23.792Z,2.90
2018-02-21T10:23:51.428Z,2.00
2018-02-21T10:26:19.055Z,2.10
2018-02-21T10:28:46.735Z,2.10
2018-02-21T10:31:14.364Z,2.10
2018-02-21T10:33:41.987Z,2.60
2018-02-21T10:36:09.664Z,2.60
2018-02-21T10:38:37.301Z,2.10
2018-02-21T10:41:06.823Z,2.60
2018-02-21T10:43:34.522Z,3.10
2018-02-21T10:46:02.144Z,2.50
2018-02-21T10:48:29.775Z,3.40
2018-02-21T10:50:57.448Z,2.50
2018-02-21T10:53:25.078Z,2.70
2018-02-21T10:55:52.706Z,3.40
2018-02-21T10:58:20.388Z,3.60
2018-02-21T11:00:53.570Z,4.20
2018-02-21T11:03:21.251Z,4.00
2018-02-21T11:05:48.882Z,3.00
2018-02-21T11:08:16.508Z,2.50
2018-02-21T11:10:44.229Z,2.30
2018-02-21T11:13:11.812Z,2.90
2018-02-21T11:18:18.585Z,2.40
2018-02-21T11:20:46.210Z,3.10
2018-02-21T11:23:13.846Z,3.10
2018-02-21T11:25:41.538Z,3.70
2018-02-21T11:28:09.154Z,3.60
2018-02-21T11:30:36.785Z,3.60
2018-02-21T11:33:04.478Z,3.40
2018-02-21T11:37:59.750Z,3.00
2018-02-21T11:40:27.418Z,3.00
2018-02-21T11:42:55.043Z,2.70
2018-02-21T11:45:22.653Z,2.80
2018-02-21T11:47:50.339Z,3.00
2018-02-21T11:50:17.977Z,3.80
2018-02-21T11:52:45.597Z,3.90
2018-02-21T11:55:13.533Z,3.30
2018-02-21T11:57:41.210Z,3.50
2018-02-21T12:00:09.046Z,3.10
2018-02-21T12:02:36.735Z,3.00
2018-02-21T12:05:04.368Z,3.50
2018-02-21T12:07:31.990Z,3.10
2018-02-21T12:09:59.666Z,2.80
2018-02-21T12:12:27.374Z,2.70
2018-02-21T12:14:54.991Z,2.60
2018-02-21T12:17:22.672Z,2.50
2018-02-21T12:22:17.913Z,2.50
2018-02-21T12:24:45.590Z,2.40
2018-02-21T12:27:13.216Z,2.50
2018-02-21T12:29:40.840Z,2.60
2018-02-21T12:34:49.047Z,2.20
2018-02-21T12:37:16.718Z,2.30
2018-02-21T12:39:44.333Z,2.20
2018-02-21T12:42:11.967Z,2.40
2018-02-21T12:47:07.296Z,2.50
2018-02-21T12:49:34.908Z,2.30
2018-02-21T12:52:02.593Z,2.30
2018-02-21T12:54:32.443Z,2.20
2018-02-21T12:57:00.075Z,2.20
2018-02-21T12:59:29.819Z,2.60
2018-02-21T13:01:57.448Z,3.00
2018-02-21T13:04:25.075Z,2.80
2018-02-21T13:06:52.801Z,2.70
2018-02-21T13:09:20.867Z,2.80
2018-02-21T13:11:48.537Z,2.70
2018-02-21T13:16:43.807Z,2.90
2018-02-21T13:19:11.440Z,2.90
2018-02-21T13:21:39.126Z,3.10
2018-02-21T13:24:06.770Z,3.50
2018-02-21T13:26:34.414Z,3.50
2018-02-21T13:29:02.085Z,3.20
2018-02-21T13:31:29.708Z,3.00
2018-02-21T13:33:57.344Z,3.30
2018-02-21T13:36:25.024Z,2.50
2018-02-21T13:38:52.656Z,2.60
2018-02-21T13:43:49.794Z,2.50
2018-02-21T13:46:17.416Z,2.30
2018-02-21T13:51:26.196Z,2.40
2018-02-21T13:53:53.816Z,2.10
2018-02-21T13:56:21.444Z,2.10
2018-02-21T14:01:16.751Z,2.20
2018-02-21T14:03:44.382Z,2.30
2018-02-21T14:06:12.062Z,2.20
2018-02-21T14:08:39.691Z,2.20
2018-02-21T14:11:07.323Z,2.20
2018-02-21T14:13:35.017Z,2.20
2018-02-21T14:16:02.636Z,2.20
2018-02-21T14:18:30.257Z,2.10
2018-02-21T14:20:57.938Z,2.20
2018-02-21T14:23:25.565Z,2.00
2018-02-21T14:25:53.193Z,2.00
2018-02-21T14:28:20.876Z,1.90
2018-02-21T14:30:48.500Z,2.10
2018-02-21T14:33:16.131Z,2.40
2018-02-21T14:35:43.811Z,2.30
2018-02-21T14:38:11.443Z,2.20
2018-02-21T14:40:39.071Z,2.20
2018-02-21T14:43:06.749Z,2.20
2018-02-21T14:45:34.379Z,2.20
2018-02-21T14:48:02.009Z,2.10
2018-02-21T14:52:57.335Z,2.00
2018-02-21T14:55:24.952Z,1.90
2018-02-21T14:57:52.643Z,1.80
2018-02-21T15:00:20.264Z,1.90
2018-02-21T15:02:47.891Z,1.90
2018-02-21T15:05:15.571Z,1.80
2018-02-21T15:07:43.226Z,2.00
2018-02-21T15:10:10.836Z,2.10
2018-02-21T15:15:19.675Z,1.80
2018-02-21T15:17:47.299Z,1.90
2018-02-21T15:20:14.916Z,1.80
2018-02-21T15:22:42.552Z,1.60
2018-02-21T15:25:10.233Z,1.60
2018-02-21T15:27:37.869Z,1.70
2018-02-21T15:30:05.487Z,1.80
2018-02-21T15:32:33.167Z,1.80
2018-02-21T15:35:00.784Z,1.80
2018-02-21T15:37:28.422Z,1.60
2018-02-21T15:39:56.094Z,1.60
2018-02-21T15:42:23.724Z,1.60
2018-02-21T15:44:51.344Z,1.60
2018-02-21T15:47:19.030Z,1.90
2018-02-21T15:49:46.667Z,1.90
2018-02-21T15:52:14.278Z,1.80
2018-02-21T15:57:09.632Z,1.50
2018-02-21T15:59:37.259Z,1.50
2018-02-21T16:04:32.634Z,1.50
2018-02-21T16:07:00.257Z,1.50
2018-02-21T16:09:27.946Z,1.50
2018-02-21T16:11:55.581Z,1.30
2018-02-21T16:14:23.202Z,1.30
2018-02-21T16:16:50.885Z,1.40
2018-02-21T16:19:18.505Z,1.20
2018-02-21T16:21:46.129Z,1.20
2018-02-21T16:24:13.807Z,1.30
2018-02-21T16:26:41.441Z,1.40
2018-02-21T16:29:09.062Z,1.40
2018-02-21T16:31:36.740Z,1.40
2018-02-21T16:34:04.376Z,1.40
2018-02-21T16:36:31.998Z,1.30
2018-02-21T16:44:08.477Z,1.40
2018-02-21T16:46:36.076Z,1.30
2018-02-21T16:49:04.029Z,1.30
2018-02-21T16:51:31.697Z,1.20
2018-02-21T16:54:05.048Z,1.40
2018-02-21T16:56:32.723Z,1.30
2018-02-21T16:59:00.354Z,1.40
2018-02-21T17:01:27.976Z,1.30
2018-02-21T17:03:55.659Z,1.30
2018-02-21T17:06:23.768Z,1.30
2018-02-21T17:08:51.395Z,1.40
2018-02-21T17:11:19.094Z,1.40
2018-02-21T17:13:46.718Z,1.40
2018-02-21T17:16:14.348Z,1.60
2018-02-21T17:18:42.035Z,1.70
2018-02-21T17:21:09.667Z,1.60
2018-02-21T17:23:37.293Z,1.70
2018-02-21T17:26:04.993Z,1.50
2018-02-21T17:28:32.642Z,1.50
2018-02-21T17:31:00.233Z,1.40
2018-02-21T17:33:27.915Z,1.20
2018-02-21T17:38:23.164Z,1.20
2018-02-21T17:40:56.413Z,1.20
2018-02-21T17:46:04.491Z,1.10
2018-02-21T17:48:32.111Z,1.20
2018-02-21T17:50:59.816Z,1.30
2018-02-21T17:53:27.502Z,1.20
2018-02-21T17:55:55.148Z,1.40
2018-02-21T17:58:22.805Z,1.40
2018-02-21T18:00:50.459Z,1.40
2018-02-21T18:03:18.142Z,1.30
2018-02-21T18:05:45.721Z,1.50
2018-02-21T18:08:13.393Z,1.70
2018-02-21T18:10:41.016Z,1.60
2018-02-21T18:13:08.645Z,1.50
2018-02-21T18:15:36.326Z,1.30
2018-02-21T18:18:03.948Z,1.20
2018-02-21T18:20:31.569Z,1.30
2018-02-21T18:22:59.254Z,1.10
2018-02-21T18:25:26.883Z,1.00
2018-02-21T18:27:54.513Z,0.80
2018-02-21T18:30:22.200Z,1.00
2018-02-21T18:32:49.832Z,1.00
2018-02-21T18:37:45.156Z,0.70
2018-02-21T18:40:13.635Z,0.80
2018-02-21T18:42:41.268Z,0.70
2018-02-21T18:45:08.948Z,0.80
2018-02-21T18:47:36.581Z,0.70
2018-02-21T18:50:04.221Z,0.60
2018-02-21T18:52:31.919Z,0.70
2018-02-21T18:54:59.542Z,0.60
2018-02-21T18:57:27.163Z,0.60
2018-02-21T18:59:54.842Z,0.60
2018-02-21T19:02:22.480Z,0.70
2018-02-21T19:07:29.278Z,0.70
2018-02-21T19:09:56.915Z,0.60
2018-02-21T19:12:24.568Z,0.70
2018-02-21T19:14:53.548Z,0.70
2018-02-21T19:17:19.930Z,0.50
2018-02-21T19:19:47.539Z,0.60
2018-02-21T19:22:15.260Z,0.60
2018-02-21T19:24:42.894Z,0.60
2018-02-21T19:27:10.509Z,0.70
2018-02-21T19:29:38.213Z,0.70
2018-02-21T19:32:05.879Z,0.50
2018-02-21T19:34:33.527Z,0.40
2018-02-21T19:37:01.263Z,0.60
2018-02-21T19:41:56.530Z,0.50
2018-02-21T19:44:24.248Z,0.60
2018-02-21T19:46:51.885Z,0.60
2018-02-21T19:49:19.511Z,0.50
2018-02-21T19:51:47.192Z,0.50
2018-02-21T19:54:14.816Z,0.50
2018-02-21T19:56:42.443Z,0.40
2018-02-21T20:01:37.760Z,0.50
2018-02-21T20:04:05.501Z,0.60
2018-02-21T20:06:33.261Z,0.40
2018-02-21T20:09:00.915Z,0.40
2018-02-21T20:11:28.538Z,0.50
2018-02-21T20:13:56.250Z,0.40
2018-02-21T20:16:23.907Z,0.50
2018-02-21T20:18:51.546Z,0.50
2018-02-21T20:21:19.243Z,0.40
2018-02-21T20:23:46.940Z,0.30
2018-02-21T20:26:14.570Z,0.50
2018-02-21T20:28:42.251Z,0.60
2018-02-21T20:33:50.702Z,0.40
2018-02-21T20:36:18.099Z,0.60
2018-02-21T20:38:46.222Z,0.50
2018-02-21T20:41:13.927Z,0.40
2018-02-21T20:43:42.035Z,0.30
2018-02-21T20:46:09.672Z,0.30
2018-02-21T20:51:08.977Z,0.30
2018-02-21T20:53:36.580Z,0.20
2018-02-21T20:56:04.589Z,0.10
2018-02-21T20:58:32.232Z,0.20
2018-02-21T21:00:59.863Z,0.20
2018-02-21T21:03:27.565Z,0.10
2018-02-21T21:05:55.609Z,0.20
2018-02-21T21:08:24.047Z,0.20
2018-02-21T21:10:59.174Z,0.10
2018-02-21T21:13:26.860Z,-0.10
2018-02-21T21:15:54.502Z,0.00
2018-02-21T21:20:49.876Z,-0.20
2018-02-21T21:23:17.790Z,-0.20
2018-02-21T21:28:13.152Z,-0.20
2018-02-21T21:30:40.798Z,-0.10
2018-02-21T21:33:08.504Z,-0.10
2018-02-21T21:35:36.170Z,-0.20
2018-02-21T21:38:03.819Z,-0.30
2018-02-21T21:40:31.523Z,-0.30
2018-02-21T21:45:26.867Z,-0.30
2018-02-21T21:47:54.558Z,-0.50
2018-02-21T21:53:00.807Z,-0.30
2018-02-21T21:55:28.440Z,-0.20
2018-02-21T21:57:56.084Z,-0.30
2018-02-21T22:00:23.772Z,-0.30
2018-02-21T22:02:55.935Z,-0.30
2018-02-21T22:05:23.631Z,-0.30
2018-02-21T22:07:51.263Z,-0.30
2018-02-21T22:10:18.899Z,-0.30
2018-02-21T22:12:46.587Z,-0.30
2018-02-21T22:15:14.235Z,-0.30
2018-02-21T22:17:41.871Z,-0.20
2018-02-21T22:20:09.556Z,-0.30
2018-02-21T22:22:37.191Z,-0.40
2018-02-21T22:25:04.816Z,-0.30
2018-02-21T22:27:32.506Z,-0.40
2018-02-21T22:30:00.150Z,-0.30
2018-02-21T22:32:27.768Z,-0.20
2018-02-21T22:34:55.474Z,-0.10
2018-02-21T22:37:23.112Z,-0.20
2018-02-21T22:39:50.750Z,-0.30
2018-02-21T22:42:18.436Z,-0.30
2018-02-21T22:44:46.068Z,-0.30
2018-02-21T22:47:13.696Z,0.30
2018-02-21T22:49:41.384Z,0.40
2018-02-21T22:52:09.014Z,0.70
2018-02-21T22:54:36.633Z,0.80
2018-02-21T22:57:04.320Z,1.00
2018-02-21T22:59:37.295Z,0.90
2018-02-21T23:02:05.031Z,0.60
2018-02-21T23:04:32.682Z,0.40
2018-02-21T23:12:24.197Z,0.20
2018-02-21T23:14:54.352Z,0.10
2018-02-21T23:17:20.491Z,-0.10
2018-02-21T23:19:50.380Z,-0.20
2018-02-21T23:22:18.058Z,-0.10
2018-02-21T23:24:45.689Z,0.00
2018-02-21T23:27:13.366Z,-0.20
2018-02-21T23:29:40.987Z,-0.30
2018-02-21T23:32:08.616Z,-0.30
2018-02-21T23:34:36.244Z,-0.10
2018-02-21T23:37:03.931Z,-0.20
2018-02-21T23:39:31.560Z,-0.30
2018-02-21T23:41:59.195Z,-0.30
2018-02-21T23:44:26.867Z,-0.30
2018-02-21T23:46:54.494Z,-0.30
2018-02-21T23:49:22.126Z,-0.30
2018-02-21T23:51:51.699Z,-0.30
2018-02-21T23:54:19.323Z,-0.20
2018-02-21T23:56:46.951Z,-0.20
2018-02-21T23:59:14.637Z,-0.30
